sensor_id;sensor_type;location;lat;lon;timestamp;P1;durP1;ratioP1;P2;durP2;ratioP2
59024;SDS011;44806;48.008;13.666;2023-12-28T00:00:47;20.80;;;6.57;;
59024;SDS011;44806;48.008;13.666;2023-12-28T00:03:15;13.43;;;4.90;;
59024;SDS011;44806;48.008;13.666;2023-12-28T00:05:42;19.65;;;5.85;;
59024;SDS011;44806;48.008;13.666;2023-12-28T00:08:09;12.02;;;4.85;;
59024;SDS011;44806;48.008;13.666;2023-12-28T00:10:36;12.13;;;4.60;;
59024;SDS011;44806;48.008;13.666;2023-12-28T00:13:03;11.45;;;5.25;;
59024;SDS011;44806;48.008;13.666;2023-12-28T00:15:30;9.27;;;3.70;;
59024;SDS011;44806;48.008;13.666;2023-12-28T00:17:57;9.13;;;4.13;;
59024;SDS011;44806;48.008;13.666;2023-12-28T00:20:25;32.90;;;6.15;;
59024;SDS011;44806;48.008;13.666;2023-12-28T00:22:52;53.28;;;5.88;;
59024;SDS011;44806;48.008;13.666;2023-12-28T00:25:18;51.28;;;6.28;;
59024;SDS011;44806;48.008;13.666;2023-12-28T00:27:45;63.65;;;6.05;;
59024;SDS011;44806;48.008;13.666;2023-12-28T00:30:12;60.05;;;6.70;;
59024;SDS011;44806;48.008;13.666;2023-12-28T00:32:42;85.95;;;6.22;;
59024;SDS011;44806;48.008;13.666;2023-12-28T00:35:11;42.17;;;5.47;;
59024;SDS011;44806;48.008;13.666;2023-12-28T00:37:39;30.40;;;5.28;;
59024;SDS011;44806;48.008;13.666;2023-12-28T00:40:07;13.32;;;4.53;;
59024;SDS011;44806;48.008;13.666;2023-12-28T00:42:34;14.40;;;3.75;;
59024;SDS011;44806;48.008;13.666;2023-12-28T00:45:01;13.07;;;4.32;;
59024;SDS011;44806;48.008;13.666;2023-12-28T00:47:28;11.15;;;4.32;;
59024;SDS011;44806;48.008;13.666;2023-12-28T00:49:55;9.85;;;4.72;;
59024;SDS011;44806;48.008;13.666;2023-12-28T00:52:22;8.38;;;3.15;;
59024;SDS011;44806;48.008;13.666;2023-12-28T00:54:50;8.82;;;3.65;;
59024;SDS011;44806;48.008;13.666;2023-12-28T00:57:17;8.90;;;3.65;;
59024;SDS011;44806;48.008;13.666;2023-12-28T00:59:44;8.98;;;3.45;;
59024;SDS011;44806;48.008;13.666;2023-12-28T01:02:11;9.15;;;3.65;;
59024;SDS011;44806;48.008;13.666;2023-12-28T01:04:38;9.27;;;3.58;;
59024;SDS011;44806;48.008;13.666;2023-12-28T01:07:05;6.03;;;2.45;;
59024;SDS011;44806;48.008;13.666;2023-12-28T01:09:32;7.72;;;3.58;;
59024;SDS011;44806;48.008;13.666;2023-12-28T01:12:00;6.85;;;3.00;;
59024;SDS011;44806;48.008;13.666;2023-12-28T01:14:27;7.53;;;2.85;;
59024;SDS011;44806;48.008;13.666;2023-12-28T01:16:54;6.97;;;2.92;;
59024;SDS011;44806;48.008;13.666;2023-12-28T01:19:21;8.23;;;3.33;;
59024;SDS011;44806;48.008;13.666;2023-12-28T01:21:48;7.55;;;3.40;;
59024;SDS011;44806;48.008;13.666;2023-12-28T01:24:15;7.60;;;3.08;;
59024;SDS011;44806;48.008;13.666;2023-12-28T01:26:42;8.52;;;2.88;;
59024;SDS011;44806;48.008;13.666;2023-12-28T01:29:11;8.15;;;3.03;;
59024;SDS011;44806;48.008;13.666;2023-12-28T01:31:38;10.00;;;3.90;;
59024;SDS011;44806;48.008;13.666;2023-12-28T01:34:05;5.70;;;3.08;;
59024;SDS011;44806;48.008;13.666;2023-12-28T01:36:34;8.32;;;3.50;;
59024;SDS011;44806;48.008;13.666;2023-12-28T01:39:01;7.70;;;3.30;;
59024;SDS011;44806;48.008;13.666;2023-12-28T01:41:28;8.70;;;3.63;;
59024;SDS011;44806;48.008;13.666;2023-12-28T01:43:55;11.13;;;2.63;;
59024;SDS011;44806;48.008;13.666;2023-12-28T01:46:23;7.43;;;3.10;;
59024;SDS011;44806;48.008;13.666;2023-12-28T01:48:50;8.32;;;3.83;;
59024;SDS011;44806;48.008;13.666;2023-12-28T01:51:18;9.00;;;3.22;;
59024;SDS011;44806;48.008;13.666;2023-12-28T01:53:45;9.35;;;3.80;;
59024;SDS011;44806;48.008;13.666;2023-12-28T01:56:16;8.52;;;3.65;;
59024;SDS011;44806;48.008;13.666;2023-12-28T01:58:44;8.02;;;3.95;;
59024;SDS011;44806;48.008;13.666;2023-12-28T02:01:14;7.05;;;3.10;;
59024;SDS011;44806;48.008;13.666;2023-12-28T02:03:43;9.25;;;2.92;;
59024;SDS011;44806;48.008;13.666;2023-12-28T02:06:10;7.47;;;3.30;;
59024;SDS011;44806;48.008;13.666;2023-12-28T02:08:41;9.15;;;3.38;;
59024;SDS011;44806;48.008;13.666;2023-12-28T02:11:08;7.25;;;3.05;;
59024;SDS011;44806;48.008;13.666;2023-12-28T02:13:35;7.80;;;3.63;;
59024;SDS011;44806;48.008;13.666;2023-12-28T02:16:03;9.25;;;4.00;;
59024;SDS011;44806;48.008;13.666;2023-12-28T02:18:34;8.38;;;3.42;;
59024;SDS011;44806;48.008;13.666;2023-12-28T02:21:07;8.02;;;3.08;;
59024;SDS011;44806;48.008;13.666;2023-12-28T02:23:35;8.35;;;3.67;;
59024;SDS011;44806;48.008;13.666;2023-12-28T02:26:03;6.47;;;2.50;;
59024;SDS011;44806;48.008;13.666;2023-12-28T02:28:30;6.38;;;3.03;;
59024;SDS011;44806;48.008;13.666;2023-12-28T02:30:57;8.02;;;3.17;;
59024;SDS011;44806;48.008;13.666;2023-12-28T02:33:29;6.93;;;2.78;;
59024;SDS011;44806;48.008;13.666;2023-12-28T02:36:01;5.60;;;2.38;;
59024;SDS011;44806;48.008;13.666;2023-12-28T02:38:31;6.97;;;3.40;;
59024;SDS011;44806;48.008;13.666;2023-12-28T02:41:04;9.20;;;2.72;;
59024;SDS011;44806;48.008;13.666;2023-12-28T02:43:31;5.55;;;2.53;;
59024;SDS011;44806;48.008;13.666;2023-12-28T02:45:58;6.75;;;2.60;;
59024;SDS011;44806;48.008;13.666;2023-12-28T02:48:25;5.68;;;2.30;;
59024;SDS011;44806;48.008;13.666;2023-12-28T02:50:52;5.25;;;2.08;;
59024;SDS011;44806;48.008;13.666;2023-12-28T02:53:19;6.80;;;2.67;;
59024;SDS011;44806;48.008;13.666;2023-12-28T02:55:46;7.85;;;2.63;;
59024;SDS011;44806;48.008;13.666;2023-12-28T02:58:14;8.02;;;2.20;;
59024;SDS011;44806;48.008;13.666;2023-12-28T03:00:41;7.95;;;2.92;;
59024;SDS011;44806;48.008;13.666;2023-12-28T03:03:08;7.55;;;2.95;;
59024;SDS011;44806;48.008;13.666;2023-12-28T03:05:35;6.32;;;2.28;;
59024;SDS011;44806;48.008;13.666;2023-12-28T03:08:02;7.80;;;2.78;;
59024;SDS011;44806;48.008;13.666;2023-12-28T03:10:29;7.43;;;3.70;;
59024;SDS011;44806;48.008;13.666;2023-12-28T03:12:56;6.65;;;2.67;;
59024;SDS011;44806;48.008;13.666;2023-12-28T03:15:24;5.85;;;2.40;;
59024;SDS011;44806;48.008;13.666;2023-12-28T03:17:51;6.55;;;2.15;;
59024;SDS011;44806;48.008;13.666;2023-12-28T03:20:18;7.20;;;2.67;;
59024;SDS011;44806;48.008;13.666;2023-12-28T03:22:46;5.63;;;2.55;;
59024;SDS011;44806;48.008;13.666;2023-12-28T03:25:13;5.25;;;1.98;;
59024;SDS011;44806;48.008;13.666;2023-12-28T03:27:40;5.78;;;2.35;;
59024;SDS011;44806;48.008;13.666;2023-12-28T03:30:08;4.05;;;1.83;;
59024;SDS011;44806;48.008;13.666;2023-12-28T03:32:37;7.10;;;2.47;;
59024;SDS011;44806;48.008;13.666;2023-12-28T03:35:04;5.88;;;2.88;;
59024;SDS011;44806;48.008;13.666;2023-12-28T03:37:32;8.82;;;2.97;;
59024;SDS011;44806;48.008;13.666;2023-12-28T03:39:59;6.38;;;2.65;;
59024;SDS011;44806;48.008;13.666;2023-12-28T03:42:26;7.28;;;2.75;;
59024;SDS011;44806;48.008;13.666;2023-12-28T03:44:53;6.82;;;2.25;;
59024;SDS011;44806;48.008;13.666;2023-12-28T03:47:20;9.65;;;3.40;;
59024;SDS011;44806;48.008;13.666;2023-12-28T03:49:49;6.15;;;2.55;;
59024;SDS011;44806;48.008;13.666;2023-12-28T03:52:16;8.85;;;3.30;;
59024;SDS011;44806;48.008;13.666;2023-12-28T03:54:43;8.88;;;3.20;;
59024;SDS011;44806;48.008;13.666;2023-12-28T03:57:10;5.28;;;2.17;;
59024;SDS011;44806;48.008;13.666;2023-12-28T03:59:37;7.32;;;3.17;;
59024;SDS011;44806;48.008;13.666;2023-12-28T04:02:03;7.25;;;2.67;;
59024;SDS011;44806;48.008;13.666;2023-12-28T04:04:30;9.30;;;2.17;;
59024;SDS011;44806;48.008;13.666;2023-12-28T04:06:59;5.55;;;2.33;;
59024;SDS011;44806;48.008;13.666;2023-12-28T04:09:25;4.32;;;1.80;;
59024;SDS011;44806;48.008;13.666;2023-12-28T04:11:52;8.88;;;2.15;;
59024;SDS011;44806;48.008;13.666;2023-12-28T04:14:19;5.80;;;2.08;;
59024;SDS011;44806;48.008;13.666;2023-12-28T04:16:46;5.70;;;2.03;;
59024;SDS011;44806;48.008;13.666;2023-12-28T04:19:13;5.72;;;2.20;;
59024;SDS011;44806;48.008;13.666;2023-12-28T04:21:42;4.20;;;1.70;;
59024;SDS011;44806;48.008;13.666;2023-12-28T04:24:10;5.25;;;2.33;;
59024;SDS011;44806;48.008;13.666;2023-12-28T04:26:37;5.82;;;2.10;;
59024;SDS011;44806;48.008;13.666;2023-12-28T04:29:04;5.65;;;2.00;;
59024;SDS011;44806;48.008;13.666;2023-12-28T04:31:32;5.80;;;1.85;;
59024;SDS011;44806;48.008;13.666;2023-12-28T04:33:59;4.45;;;1.90;;
59024;SDS011;44806;48.008;13.666;2023-12-28T04:36:26;6.40;;;2.38;;
59024;SDS011;44806;48.008;13.666;2023-12-28T04:38:53;4.90;;;1.90;;
59024;SDS011;44806;48.008;13.666;2023-12-28T04:41:21;7.72;;;2.13;;
59024;SDS011;44806;48.008;13.666;2023-12-28T04:43:48;6.18;;;2.17;;
59024;SDS011;44806;48.008;13.666;2023-12-28T04:46:15;5.20;;;1.55;;
59024;SDS011;44806;48.008;13.666;2023-12-28T04:48:42;7.32;;;2.55;;
59024;SDS011;44806;48.008;13.666;2023-12-28T04:51:08;8.10;;;2.45;;
59024;SDS011;44806;48.008;13.666;2023-12-28T04:53:35;6.05;;;2.03;;
59024;SDS011;44806;48.008;13.666;2023-12-28T04:56:02;4.78;;;2.05;;
59024;SDS011;44806;48.008;13.666;2023-12-28T04:58:31;6.30;;;2.20;;
59024;SDS011;44806;48.008;13.666;2023-12-28T05:00:58;5.53;;;2.45;;
59024;SDS011;44806;48.008;13.666;2023-12-28T05:03:27;5.75;;;2.38;;
59024;SDS011;44806;48.008;13.666;2023-12-28T05:05:54;4.00;;;1.77;;
59024;SDS011;44806;48.008;13.666;2023-12-28T05:08:21;5.93;;;1.50;;
59024;SDS011;44806;48.008;13.666;2023-12-28T05:10:48;6.13;;;2.20;;
59024;SDS011;44806;48.008;13.666;2023-12-28T05:13:15;6.75;;;1.75;;
59024;SDS011;44806;48.008;13.666;2023-12-28T05:15:43;3.97;;;1.40;;
59024;SDS011;44806;48.008;13.666;2023-12-28T05:18:10;4.85;;;1.40;;
59024;SDS011;44806;48.008;13.666;2023-12-28T05:20:37;3.85;;;1.48;;
59024;SDS011;44806;48.008;13.666;2023-12-28T05:23:04;4.45;;;2.00;;
59024;SDS011;44806;48.008;13.666;2023-12-28T05:25:31;7.72;;;1.50;;
59024;SDS011;44806;48.008;13.666;2023-12-28T05:27:58;5.10;;;2.00;;
59024;SDS011;44806;48.008;13.666;2023-12-28T05:30:25;4.85;;;2.00;;
59024;SDS011;44806;48.008;13.666;2023-12-28T05:32:53;4.43;;;1.42;;
59024;SDS011;44806;48.008;13.666;2023-12-28T05:35:20;4.85;;;1.75;;
59024;SDS011;44806;48.008;13.666;2023-12-28T05:37:47;3.70;;;1.40;;
59024;SDS011;44806;48.008;13.666;2023-12-28T05:40:14;3.72;;;1.30;;
59024;SDS011;44806;48.008;13.666;2023-12-28T05:42:41;4.07;;;1.40;;
59024;SDS011;44806;48.008;13.666;2023-12-28T05:45:08;5.18;;;1.88;;
59024;SDS011;44806;48.008;13.666;2023-12-28T05:47:36;8.07;;;1.90;;
59024;SDS011;44806;48.008;13.666;2023-12-28T05:50:05;6.28;;;1.63;;
59024;SDS011;44806;48.008;13.666;2023-12-28T05:52:32;6.32;;;1.70;;
59024;SDS011;44806;48.008;13.666;2023-12-28T05:54:59;4.70;;;1.67;;
59024;SDS011;44806;48.008;13.666;2023-12-28T05:57:26;3.92;;;1.10;;
59024;SDS011;44806;48.008;13.666;2023-12-28T05:59:55;5.45;;;2.05;;
59024;SDS011;44806;48.008;13.666;2023-12-28T06:02:22;5.13;;;1.88;;
59024;SDS011;44806;48.008;13.666;2023-12-28T06:04:49;4.80;;;1.80;;
59024;SDS011;44806;48.008;13.666;2023-12-28T06:07:17;6.70;;;1.88;;
59024;SDS011;44806;48.008;13.666;2023-12-28T06:09:44;4.88;;;1.52;;
59024;SDS011;44806;48.008;13.666;2023-12-28T06:12:11;4.82;;;1.95;;
59024;SDS011;44806;48.008;13.666;2023-12-28T06:14:38;4.68;;;1.70;;
59024;SDS011;44806;48.008;13.666;2023-12-28T06:17:05;4.78;;;2.03;;
59024;SDS011;44806;48.008;13.666;2023-12-28T06:19:32;5.45;;;2.03;;
59024;SDS011;44806;48.008;13.666;2023-12-28T06:21:59;5.05;;;1.50;;
59024;SDS011;44806;48.008;13.666;2023-12-28T06:24:27;7.43;;;2.10;;
59024;SDS011;44806;48.008;13.666;2023-12-28T06:26:54;6.50;;;2.10;;
59024;SDS011;44806;48.008;13.666;2023-12-28T06:29:21;8.00;;;2.65;;
59024;SDS011;44806;48.008;13.666;2023-12-28T06:31:48;4.88;;;1.80;;
59024;SDS011;44806;48.008;13.666;2023-12-28T06:34:15;4.82;;;1.80;;
59024;SDS011;44806;48.008;13.666;2023-12-28T06:36:42;7.57;;;2.22;;
59024;SDS011;44806;48.008;13.666;2023-12-28T06:39:09;4.65;;;1.65;;
59024;SDS011;44806;48.008;13.666;2023-12-28T06:41:37;6.53;;;1.85;;
59024;SDS011;44806;48.008;13.666;2023-12-28T06:44:04;5.78;;;2.10;;
59024;SDS011;44806;48.008;13.666;2023-12-28T06:46:31;6.95;;;2.17;;
59024;SDS011;44806;48.008;13.666;2023-12-28T06:48:58;6.72;;;2.08;;
59024;SDS011;44806;48.008;13.666;2023-12-28T06:51:25;5.38;;;1.70;;
59024;SDS011;44806;48.008;13.666;2023-12-28T06:53:52;4.93;;;1.88;;
59024;SDS011;44806;48.008;13.666;2023-12-28T06:56:19;5.07;;;1.80;;
59024;SDS011;44806;48.008;13.666;2023-12-28T06:58:47;4.13;;;1.38;;
59024;SDS011;44806;48.008;13.666;2023-12-28T07:01:14;6.78;;;2.10;;
59024;SDS011;44806;48.008;13.666;2023-12-28T07:03:41;7.78;;;2.05;;
59024;SDS011;44806;48.008;13.666;2023-12-28T07:06:08;6.05;;;2.25;;
59024;SDS011;44806;48.008;13.666;2023-12-28T07:08:35;5.93;;;2.08;;
59024;SDS011;44806;48.008;13.666;2023-12-28T07:11:02;6.20;;;2.20;;
59024;SDS011;44806;48.008;13.666;2023-12-28T07:13:29;5.25;;;2.13;;
59024;SDS011;44806;48.008;13.666;2023-12-28T07:15:58;6.82;;;2.38;;
59024;SDS011;44806;48.008;13.666;2023-12-28T07:18:24;6.25;;;2.45;;
59024;SDS011;44806;48.008;13.666;2023-12-28T07:20:51;8.90;;;3.42;;
59024;SDS011;44806;48.008;13.666;2023-12-28T07:23:19;6.40;;;2.40;;
59024;SDS011;44806;48.008;13.666;2023-12-28T07:25:46;10.48;;;3.38;;
59024;SDS011;44806;48.008;13.666;2023-12-28T07:28:12;5.85;;;2.25;;
59024;SDS011;44806;48.008;13.666;2023-12-28T07:30:39;6.70;;;2.42;;
59024;SDS011;44806;48.008;13.666;2023-12-28T07:33:08;6.03;;;2.15;;
59024;SDS011;44806;48.008;13.666;2023-12-28T07:35:35;7.43;;;2.50;;
59024;SDS011;44806;48.008;13.666;2023-12-28T07:38:02;7.10;;;2.30;;
59024;SDS011;44806;48.008;13.666;2023-12-28T07:40:29;6.05;;;2.47;;
59024;SDS011;44806;48.008;13.666;2023-12-28T07:42:56;10.88;;;2.67;;
59024;SDS011;44806;48.008;13.666;2023-12-28T07:45:23;5.50;;;2.33;;
59024;SDS011;44806;48.008;13.666;2023-12-28T07:47:50;8.82;;;2.78;;
59024;SDS011;44806;48.008;13.666;2023-12-28T07:50:18;5.32;;;1.98;;
59024;SDS011;44806;48.008;13.666;2023-12-28T07:52:46;9.18;;;3.17;;
59024;SDS011;44806;48.008;13.666;2023-12-28T07:55:13;13.30;;;4.80;;
59024;SDS011;44806;48.008;13.666;2023-12-28T07:57:41;9.85;;;4.65;;
59024;SDS011;44806;48.008;13.666;2023-12-28T08:00:08;12.10;;;3.75;;
59024;SDS011;44806;48.008;13.666;2023-12-28T08:02:36;12.07;;;2.55;;
59024;SDS011;44806;48.008;13.666;2023-12-28T08:05:04;6.45;;;2.70;;
59024;SDS011;44806;48.008;13.666;2023-12-28T08:07:33;6.68;;;2.28;;
59024;SDS011;44806;48.008;13.666;2023-12-28T08:10:00;5.95;;;2.00;;
59024;SDS011;44806;48.008;13.666;2023-12-28T08:12:28;9.13;;;2.90;;
59024;SDS011;44806;48.008;13.666;2023-12-28T08:14:55;6.50;;;2.42;;
59024;SDS011;44806;48.008;13.666;2023-12-28T08:17:22;7.60;;;2.38;;
59024;SDS011;44806;48.008;13.666;2023-12-28T08:19:49;6.00;;;2.38;;
59024;SDS011;44806;48.008;13.666;2023-12-28T08:22:16;8.60;;;2.95;;
59024;SDS011;44806;48.008;13.666;2023-12-28T08:24:45;8.68;;;3.30;;
59024;SDS011;44806;48.008;13.666;2023-12-28T08:27:12;8.52;;;3.83;;
59024;SDS011;44806;48.008;13.666;2023-12-28T08:29:39;8.20;;;3.60;;
59024;SDS011;44806;48.008;13.666;2023-12-28T08:32:06;7.68;;;2.78;;
59024;SDS011;44806;48.008;13.666;2023-12-28T08:34:33;10.75;;;3.65;;
59024;SDS011;44806;48.008;13.666;2023-12-28T08:37:00;7.75;;;3.55;;
59024;SDS011;44806;48.008;13.666;2023-12-28T08:39:27;6.28;;;2.40;;
59024;SDS011;44806;48.008;13.666;2023-12-28T08:41:56;7.40;;;2.95;;
59024;SDS011;44806;48.008;13.666;2023-12-28T08:44:24;7.75;;;3.25;;
59024;SDS011;44806;48.008;13.666;2023-12-28T08:46:50;6.03;;;2.70;;
59024;SDS011;44806;48.008;13.666;2023-12-28T08:49:17;8.27;;;3.35;;
59024;SDS011;44806;48.008;13.666;2023-12-28T08:51:44;8.70;;;2.70;;
59024;SDS011;44806;48.008;13.666;2023-12-28T08:54:11;13.82;;;3.55;;
59024;SDS011;44806;48.008;13.666;2023-12-28T08:56:39;11.40;;;4.05;;
59024;SDS011;44806;48.008;13.666;2023-12-28T08:59:07;9.27;;;3.80;;
59024;SDS011;44806;48.008;13.666;2023-12-28T09:01:34;8.43;;;3.72;;
59024;SDS011;44806;48.008;13.666;2023-12-28T09:04:02;9.50;;;3.63;;
59024;SDS011;44806;48.008;13.666;2023-12-28T09:06:29;10.30;;;4.68;;
59024;SDS011;44806;48.008;13.666;2023-12-28T09:08:56;7.57;;;3.70;;
59024;SDS011;44806;48.008;13.666;2023-12-28T09:11:23;6.65;;;3.33;;
59024;SDS011;44806;48.008;13.666;2023-12-28T09:13:50;9.95;;;4.03;;
59024;SDS011;44806;48.008;13.666;2023-12-28T09:16:18;8.55;;;3.95;;
59024;SDS011;44806;48.008;13.666;2023-12-28T09:18:45;8.40;;;3.30;;
59024;SDS011;44806;48.008;13.666;2023-12-28T09:21:12;8.02;;;3.53;;
59024;SDS011;44806;48.008;13.666;2023-12-28T09:23:39;7.90;;;3.83;;
59024;SDS011;44806;48.008;13.666;2023-12-28T09:26:06;8.90;;;3.90;;
59024;SDS011;44806;48.008;13.666;2023-12-28T09:28:33;8.48;;;2.95;;
59024;SDS011;44806;48.008;13.666;2023-12-28T09:31:01;8.07;;;3.00;;
59024;SDS011;44806;48.008;13.666;2023-12-28T09:33:30;10.82;;;2.90;;
59024;SDS011;44806;48.008;13.666;2023-12-28T09:35:57;6.35;;;2.88;;
59024;SDS011;44806;48.008;13.666;2023-12-28T09:38:24;7.85;;;2.88;;
59024;SDS011;44806;48.008;13.666;2023-12-28T09:40:53;6.38;;;2.45;;
59024;SDS011;44806;48.008;13.666;2023-12-28T09:43:22;8.93;;;2.92;;
59024;SDS011;44806;48.008;13.666;2023-12-28T09:45:50;6.63;;;2.72;;
59024;SDS011;44806;48.008;13.666;2023-12-28T09:48:18;7.93;;;2.67;;
59024;SDS011;44806;48.008;13.666;2023-12-28T09:50:50;6.63;;;2.47;;
59024;SDS011;44806;48.008;13.666;2023-12-28T09:53:19;8.95;;;3.10;;
59024;SDS011;44806;48.008;13.666;2023-12-28T09:55:47;8.13;;;3.03;;
59024;SDS011;44806;48.008;13.666;2023-12-28T09:58:16;5.80;;;3.10;;
59024;SDS011;44806;48.008;13.666;2023-12-28T10:00:45;8.32;;;3.47;;
59024;SDS011;44806;48.008;13.666;2023-12-28T10:03:13;7.25;;;3.13;;
59024;SDS011;44806;48.008;13.666;2023-12-28T10:05:40;8.65;;;3.25;;
59024;SDS011;44806;48.008;13.666;2023-12-28T10:08:10;7.75;;;2.75;;
59024;SDS011;44806;48.008;13.666;2023-12-28T10:10:38;8.73;;;3.40;;
59024;SDS011;44806;48.008;13.666;2023-12-28T10:13:06;6.38;;;2.85;;
59024;SDS011;44806;48.008;13.666;2023-12-28T10:15:33;7.22;;;2.67;;
59024;SDS011;44806;48.008;13.666;2023-12-28T10:18:00;6.03;;;2.40;;
59024;SDS011;44806;48.008;13.666;2023-12-28T10:20:26;8.13;;;2.78;;
59024;SDS011;44806;48.008;13.666;2023-12-28T10:22:53;7.28;;;2.65;;
59024;SDS011;44806;48.008;13.666;2023-12-28T10:25:21;7.70;;;3.30;;
59024;SDS011;44806;48.008;13.666;2023-12-28T10:27:50;10.13;;;3.28;;
59024;SDS011;44806;48.008;13.666;2023-12-28T10:30:17;7.40;;;3.20;;
59024;SDS011;44806;48.008;13.666;2023-12-28T10:32:45;9.73;;;3.63;;
59024;SDS011;44806;48.008;13.666;2023-12-28T10:35:13;8.65;;;3.35;;
59024;SDS011;44806;48.008;13.666;2023-12-28T10:37:40;8.02;;;3.72;;
59024;SDS011;44806;48.008;13.666;2023-12-28T10:40:13;12.73;;;3.67;;
59024;SDS011;44806;48.008;13.666;2023-12-28T10:42:46;7.45;;;3.33;;
59024;SDS011;44806;48.008;13.666;2023-12-28T10:45:17;8.60;;;3.72;;
59024;SDS011;44806;48.008;13.666;2023-12-28T10:47:52;8.63;;;3.08;;
59024;SDS011;44806;48.008;13.666;2023-12-28T10:50:23;9.10;;;2.63;;
59024;SDS011;44806;48.008;13.666;2023-12-28T10:52:56;8.50;;;2.50;;
59024;SDS011;44806;48.008;13.666;2023-12-28T10:55:34;7.22;;;2.35;;
59024;SDS011;44806;48.008;13.666;2023-12-28T10:58:12;6.28;;;2.55;;
59024;SDS011;44806;48.008;13.666;2023-12-28T11:00:47;8.18;;;2.75;;
59024;SDS011;44806;48.008;13.666;2023-12-28T11:03:21;7.30;;;2.85;;
59024;SDS011;44806;48.008;13.666;2023-12-28T11:05:52;5.20;;;1.95;;
59024;SDS011;44806;48.008;13.666;2023-12-28T11:08:21;5.95;;;2.25;;
59024;SDS011;44806;48.008;13.666;2023-12-28T11:10:48;6.82;;;2.40;;
59024;SDS011;44806;48.008;13.666;2023-12-28T11:13:18;5.82;;;2.20;;
59024;SDS011;44806;48.008;13.666;2023-12-28T11:15:47;6.43;;;2.42;;
59024;SDS011;44806;48.008;13.666;2023-12-28T11:18:16;7.43;;;2.60;;
59024;SDS011;44806;48.008;13.666;2023-12-28T11:20:43;6.00;;;2.17;;
59024;SDS011;44806;48.008;13.666;2023-12-28T11:23:11;6.00;;;2.10;;
59024;SDS011;44806;48.008;13.666;2023-12-28T11:25:38;6.07;;;2.28;;
59024;SDS011;44806;48.008;13.666;2023-12-28T11:28:09;6.18;;;2.15;;
59024;SDS011;44806;48.008;13.666;2023-12-28T11:30:38;7.32;;;2.45;;
59024;SDS011;44806;48.008;13.666;2023-12-28T11:33:07;5.72;;;2.15;;
59024;SDS011;44806;48.008;13.666;2023-12-28T11:35:36;8.43;;;2.50;;
59024;SDS011;44806;48.008;13.666;2023-12-28T11:38:05;8.18;;;2.70;;
59024;SDS011;44806;48.008;13.666;2023-12-28T11:40:41;5.40;;;2.25;;
59024;SDS011;44806;48.008;13.666;2023-12-28T11:43:15;5.72;;;2.20;;
59024;SDS011;44806;48.008;13.666;2023-12-28T11:45:50;4.65;;;1.73;;
59024;SDS011;44806;48.008;13.666;2023-12-28T11:48:23;6.32;;;2.13;;
59024;SDS011;44806;48.008;13.666;2023-12-28T11:50:53;8.23;;;2.30;;
59024;SDS011;44806;48.008;13.666;2023-12-28T11:53:22;8.43;;;2.10;;
59024;SDS011;44806;48.008;13.666;2023-12-28T11:55:50;6.68;;;2.22;;
59024;SDS011;44806;48.008;13.666;2023-12-28T11:58:17;14.35;;;2.33;;
59024;SDS011;44806;48.008;13.666;2023-12-28T12:00:44;6.63;;;2.13;;
59024;SDS011;44806;48.008;13.666;2023-12-28T12:03:13;4.95;;;1.83;;
59024;SDS011;44806;48.008;13.666;2023-12-28T12:05:39;5.20;;;2.22;;
59024;SDS011;44806;48.008;13.666;2023-12-28T12:08:07;5.97;;;2.00;;
59024;SDS011;44806;48.008;13.666;2023-12-28T12:10:38;6.40;;;2.10;;
59024;SDS011;44806;48.008;13.666;2023-12-28T12:13:05;7.45;;;2.42;;
59024;SDS011;44806;48.008;13.666;2023-12-28T12:15:32;4.63;;;1.58;;
59024;SDS011;44806;48.008;13.666;2023-12-28T12:17:59;7.95;;;1.92;;
59024;SDS011;44806;48.008;13.666;2023-12-28T12:20:29;4.75;;;1.30;;
59024;SDS011;44806;48.008;13.666;2023-12-28T12:22:57;6.90;;;1.80;;
59024;SDS011;44806;48.008;13.666;2023-12-28T12:25:25;5.35;;;1.67;;
59024;SDS011;44806;48.008;13.666;2023-12-28T12:27:52;6.32;;;1.98;;
59024;SDS011;44806;48.008;13.666;2023-12-28T12:30:19;5.50;;;1.92;;
59024;SDS011;44806;48.008;13.666;2023-12-28T12:32:46;6.40;;;1.63;;
59024;SDS011;44806;48.008;13.666;2023-12-28T12:35:14;4.57;;;1.70;;
59024;SDS011;44806;48.008;13.666;2023-12-28T12:37:44;23.83;;;13.98;;
59024;SDS011;44806;48.008;13.666;2023-12-28T12:40:12;22.27;;;10.18;;
59024;SDS011;44806;48.008;13.666;2023-12-28T12:42:40;13.93;;;6.22;;
59024;SDS011;44806;48.008;13.666;2023-12-28T12:45:08;16.95;;;8.38;;
59024;SDS011;44806;48.008;13.666;2023-12-28T12:47:35;15.00;;;5.20;;
59024;SDS011;44806;48.008;13.666;2023-12-28T12:50:02;6.47;;;2.50;;
59024;SDS011;44806;48.008;13.666;2023-12-28T12:52:30;7.47;;;2.63;;
59024;SDS011;44806;48.008;13.666;2023-12-28T12:54:59;6.72;;;2.22;;
59024;SDS011;44806;48.008;13.666;2023-12-28T12:57:25;7.70;;;2.65;;
59024;SDS011;44806;48.008;13.666;2023-12-28T12:59:53;12.15;;;2.47;;
59024;SDS011;44806;48.008;13.666;2023-12-28T13:02:22;6.72;;;2.13;;
59024;SDS011;44806;48.008;13.666;2023-12-28T13:04:51;12.98;;;3.30;;
59024;SDS011;44806;48.008;13.666;2023-12-28T13:07:18;7.97;;;2.60;;
59024;SDS011;44806;48.008;13.666;2023-12-28T13:09:45;8.85;;;2.88;;
59024;SDS011;44806;48.008;13.666;2023-12-28T13:12:14;8.48;;;2.88;;
59024;SDS011;44806;48.008;13.666;2023-12-28T13:14:41;5.85;;;2.95;;
59024;SDS011;44806;48.008;13.666;2023-12-28T13:17:09;11.48;;;4.00;;
59024;SDS011;44806;48.008;13.666;2023-12-28T13:19:36;7.50;;;3.58;;
59024;SDS011;44806;48.008;13.666;2023-12-28T13:22:03;7.88;;;3.28;;
59024;SDS011;44806;48.008;13.666;2023-12-28T13:24:31;7.97;;;2.63;;
59024;SDS011;44806;48.008;13.666;2023-12-28T13:26:58;7.30;;;2.63;;
59024;SDS011;44806;48.008;13.666;2023-12-28T13:29:26;8.43;;;3.25;;
59024;SDS011;44806;48.008;13.666;2023-12-28T13:31:54;7.75;;;3.40;;
59024;SDS011;44806;48.008;13.666;2023-12-28T13:34:23;7.70;;;2.92;;
59024;SDS011;44806;48.008;13.666;2023-12-28T13:36:50;8.05;;;2.95;;
59024;SDS011;44806;48.008;13.666;2023-12-28T13:39:18;7.93;;;3.15;;
59024;SDS011;44806;48.008;13.666;2023-12-28T13:41:45;7.75;;;2.83;;
59024;SDS011;44806;48.008;13.666;2023-12-28T13:44:12;8.15;;;2.65;;
59024;SDS011;44806;48.008;13.666;2023-12-28T13:46:40;6.75;;;2.55;;
59024;SDS011;44806;48.008;13.666;2023-12-28T13:49:07;8.05;;;1.98;;
59024;SDS011;44806;48.008;13.666;2023-12-28T13:51:34;6.53;;;2.53;;
59024;SDS011;44806;48.008;13.666;2023-12-28T13:54:01;7.35;;;2.60;;
59024;SDS011;44806;48.008;13.666;2023-12-28T13:56:28;6.32;;;1.85;;
59024;SDS011;44806;48.008;13.666;2023-12-28T13:58:55;7.57;;;2.72;;
59024;SDS011;44806;48.008;13.666;2023-12-28T14:01:22;8.23;;;2.40;;
59024;SDS011;44806;48.008;13.666;2023-12-28T14:03:50;6.53;;;2.28;;
59024;SDS011;44806;48.008;13.666;2023-12-28T14:06:17;8.00;;;1.85;;
59024;SDS011;44806;48.008;13.666;2023-12-28T14:08:45;6.32;;;2.30;;
59024;SDS011;44806;48.008;13.666;2023-12-28T14:11:12;21.45;;;3.47;;
59024;SDS011;44806;48.008;13.666;2023-12-28T14:13:39;10.73;;;2.78;;
59024;SDS011;44806;48.008;13.666;2023-12-28T14:16:06;5.97;;;2.30;;
59024;SDS011;44806;48.008;13.666;2023-12-28T14:18:33;7.75;;;3.28;;
59024;SDS011;44806;48.008;13.666;2023-12-28T14:21:02;7.40;;;2.70;;
59024;SDS011;44806;48.008;13.666;2023-12-28T14:23:29;14.65;;;2.63;;
59024;SDS011;44806;48.008;13.666;2023-12-28T14:25:57;10.93;;;2.33;;
59024;SDS011;44806;48.008;13.666;2023-12-28T14:28:24;7.20;;;2.15;;
59024;SDS011;44806;48.008;13.666;2023-12-28T14:30:51;6.72;;;2.25;;
59024;SDS011;44806;48.008;13.666;2023-12-28T14:33:20;4.53;;;1.70;;
59024;SDS011;44806;48.008;13.666;2023-12-28T14:35:47;8.70;;;2.38;;